sensor_id;sensor_type;location;lat;lon;timestamp;P1;durP1;ratioP1;P2;durP2;ratioP2
17985;SDS011;9118;48.122;11.546;2022-07-15T00:01:36;5.28;;;4.80;;
17985;SDS011;9118;48.122;11.546;2022-07-15T00:04:03;6.80;;;5.10;;
17985;SDS011;9118;48.122;11.546;2022-07-15T00:06:30;5.68;;;5.18;;
17985;SDS011;9118;48.122;11.546;2022-07-15T00:08:58;5.72;;;5.22;;
17985;SDS011;9118;48.122;11.546;2022-07-15T00:11:25;8.50;;;5.00;;
17985;SDS011;9118;48.122;11.546;2022-07-15T00:13:52;5.72;;;5.20;;
17985;SDS011;9118;48.122;11.546;2022-07-15T00:16:20;8.70;;;6.20;;
17985;SDS011;9118;48.122;11.546;2022-07-15T00:18:47;5.88;;;5.20;;
17985;SDS011;9118;48.122;11.546;2022-07-15T00:21:14;5.35;;;4.85;;
17985;SDS011;9118;48.122;11.546;2022-07-15T00:23:41;5.90;;;5.30;;
17985;SDS011;9118;48.122;11.546;2022-07-15T00:26:10;6.20;;;5.70;;
17985;SDS011;9118;48.122;11.546;2022-07-15T00:28:37;8.07;;;5.10;;
17985;SDS011;9118;48.122;11.546;2022-07-15T00:31:04;6.07;;;4.80;;
17985;SDS011;9118;48.122;11.546;2022-07-15T00:33:31;6.50;;;5.07;;
17985;SDS011;9118;48.122;11.546;2022-07-15T00:35:58;6.47;;;5.38;;
17985;SDS011;9118;48.122;11.546;2022-07-15T00:38:26;9.40;;;6.47;;
17985;SDS011;9118;48.122;11.546;2022-07-15T00:40:53;6.97;;;5.78;;
17985;SDS011;9118;48.122;11.546;2022-07-15T00:43:22;6.90;;;5.63;;
17985;SDS011;9118;48.122;11.546;2022-07-15T00:45:48;8.60;;;5.95;;
17985;SDS011;9118;48.122;11.546;2022-07-15T00:48:17;6.65;;;5.18;;
17985;SDS011;9118;48.122;11.546;2022-07-15T00:50:45;8.70;;;5.47;;
17985;SDS011;9118;48.122;11.546;2022-07-15T00:53:12;7.03;;;5.78;;
17985;SDS011;9118;48.122;11.546;2022-07-15T00:55:43;7.72;;;5.90;;
17985;SDS011;9118;48.122;11.546;2022-07-15T00:58:13;9.75;;;6.63;;
17985;SDS011;9118;48.122;11.546;2022-07-15T01:00:44;16.40;;;7.88;;
17985;SDS011;9118;48.122;11.546;2022-07-15T01:03:11;8.98;;;7.22;;
17985;SDS011;9118;48.122;11.546;2022-07-15T01:05:40;12.07;;;8.45;;
17985;SDS011;9118;48.122;11.546;2022-07-15T01:08:08;12.43;;;9.32;;
17985;SDS011;9118;48.122;11.546;2022-07-15T01:10:35;14.77;;;9.15;;
17985;SDS011;9118;48.122;11.546;2022-07-15T01:13:02;11.37;;;9.30;;
17985;SDS011;9118;48.122;11.546;2022-07-15T01:15:30;11.23;;;8.90;;
17985;SDS011;9118;48.122;11.546;2022-07-15T01:18:00;15.40;;;10.30;;
17985;SDS011;9118;48.122;11.546;2022-07-15T01:20:28;11.80;;;9.65;;
17985;SDS011;9118;48.122;11.546;2022-07-15T01:22:57;15.20;;;10.57;;
17985;SDS011;9118;48.122;11.546;2022-07-15T01:25:25;12.43;;;10.07;;
17985;SDS011;9118;48.122;11.546;2022-07-15T01:27:53;10.98;;;9.95;;
17985;SDS011;9118;48.122;11.546;2022-07-15T01:30:20;14.70;;;10.02;;
17985;SDS011;9118;48.122;11.546;2022-07-15T01:32:47;9.57;;;8.55;;
17985;SDS011;9118;48.122;11.546;2022-07-15T01:35:14;12.18;;;8.75;;
17985;SDS011;9118;48.122;11.546;2022-07-15T01:37:41;11.67;;;9.43;;
17985;SDS011;9118;48.122;11.546;2022-07-15T01:40:11;10.10;;;9.00;;
17985;SDS011;9118;48.122;11.546;2022-07-15T01:42:38;10.18;;;9.23;;
17985;SDS011;9118;48.122;11.546;2022-07-15T01:45:06;12.52;;;9.65;;
17985;SDS011;9118;48.122;11.546;2022-07-15T01:47:34;10.35;;;9.32;;
17985;SDS011;9118;48.122;11.546;2022-07-15T01:50:07;10.68;;;9.02;;
17985;SDS011;9118;48.122;11.546;2022-07-15T01:52:35;11.25;;;7.95;;
17985;SDS011;9118;48.122;11.546;2022-07-15T01:55:02;12.25;;;8.07;;
17985;SDS011;9118;48.122;11.546;2022-07-15T01:57:31;9.23;;;8.20;;
17985;SDS011;9118;48.122;11.546;2022-07-15T01:59:58;10.50;;;7.65;;
17985;SDS011;9118;48.122;11.546;2022-07-15T02:02:25;9.07;;;7.70;;
17985;SDS011;9118;48.122;11.546;2022-07-15T02:04:52;8.05;;;7.25;;
17985;SDS011;9118;48.122;11.546;2022-07-15T02:07:19;10.73;;;7.22;;
17985;SDS011;9118;48.122;11.546;2022-07-15T02:09:46;9.07;;;7.70;;
17985;SDS011;9118;48.122;11.546;2022-07-15T02:12:13;9.33;;;7.03;;
17985;SDS011;9118;48.122;11.546;2022-07-15T02:14:41;11.05;;;7.10;;
17985;SDS011;9118;48.122;11.546;2022-07-15T02:17:08;8.55;;;7.75;;
17985;SDS011;9118;48.122;11.546;2022-07-15T02:19:35;9.77;;;7.13;;
17985;SDS011;9118;48.122;11.546;2022-07-15T02:22:02;7.60;;;6.80;;
17985;SDS011;9118;48.122;11.546;2022-07-15T02:24:30;8.07;;;7.28;;
17985;SDS011;9118;48.122;11.546;2022-07-15T02:26:57;9.57;;;6.85;;
17985;SDS011;9118;48.122;11.546;2022-07-15T02:29:24;9.27;;;7.07;;
17985;SDS011;9118;48.122;11.546;2022-07-15T02:31:52;8.88;;;6.68;;
17985;SDS011;9118;48.122;11.546;2022-07-15T02:34:19;8.15;;;6.97;;
17985;SDS011;9118;48.122;11.546;2022-07-15T02:36:46;8.68;;;7.45;;
17985;SDS011;9118;48.122;11.546;2022-07-15T02:39:13;8.88;;;7.40;;
17985;SDS011;9118;48.122;11.546;2022-07-15T02:41:40;9.35;;;6.78;;
17985;SDS011;9118;48.122;11.546;2022-07-15T02:44:07;9.98;;;6.72;;
17985;SDS011;9118;48.122;11.546;2022-07-15T02:46:34;7.63;;;6.27;;
17985;SDS011;9118;48.122;11.546;2022-07-15T02:49:02;7.68;;;6.18;;
17985;SDS011;9118;48.122;11.546;2022-07-15T02:51:29;9.15;;;5.75;;
17985;SDS011;9118;48.122;11.546;2022-07-15T02:53:56;6.15;;;4.40;;
17985;SDS011;9118;48.122;11.546;2022-07-15T02:56:23;5.50;;;4.25;;
17985;SDS011;9118;48.122;11.546;2022-07-15T02:58:50;5.00;;;4.30;;
17985;SDS011;9118;48.122;11.546;2022-07-15T03:01:16;6.18;;;4.55;;
17985;SDS011;9118;48.122;11.546;2022-07-15T03:03:44;5.85;;;4.07;;
17985;SDS011;9118;48.122;11.546;2022-07-15T03:06:13;4.78;;;4.30;;
17985;SDS011;9118;48.122;11.546;2022-07-15T03:08:40;5.80;;;4.10;;
17985;SDS011;9118;48.122;11.546;2022-07-15T03:11:06;5.35;;;3.95;;
17985;SDS011;9118;48.122;11.546;2022-07-15T03:13:33;4.65;;;3.75;;
17985;SDS011;9118;48.122;11.546;2022-07-15T03:16:00;6.78;;;4.13;;
17985;SDS011;9118;48.122;11.546;2022-07-15T03:18:28;5.82;;;4.30;;
17985;SDS011;9118;48.122;11.546;2022-07-15T03:20:55;5.90;;;4.10;;
17985;SDS011;9118;48.122;11.546;2022-07-15T03:23:23;6.72;;;4.30;;
17985;SDS011;9118;48.122;11.546;2022-07-15T03:25:51;8.63;;;4.68;;
17985;SDS011;9118;48.122;11.546;2022-07-15T03:28:17;5.72;;;4.07;;
17985;SDS011;9118;48.122;11.546;2022-07-15T03:30:45;5.43;;;4.22;;
17985;SDS011;9118;48.122;11.546;2022-07-15T03:33:12;4.97;;;3.95;;
17985;SDS011;9118;48.122;11.546;2022-07-15T03:35:39;9.10;;;4.35;;
17985;SDS011;9118;48.122;11.546;2022-07-15T03:38:07;4.00;;;3.70;;
17985;SDS011;9118;48.122;11.546;2022-07-15T03:40:36;5.15;;;3.75;;
17985;SDS011;9118;48.122;11.546;2022-07-15T03:43:03;5.38;;;4.15;;
17985;SDS011;9118;48.122;11.546;2022-07-15T03:45:30;5.47;;;4.03;;
17985;SDS011;9118;48.122;11.546;2022-07-15T03:47:56;7.35;;;4.60;;
17985;SDS011;9118;48.122;11.546;2022-07-15T03:50:23;4.55;;;4.10;;
17985;SDS011;9118;48.122;11.546;2022-07-15T03:52:50;6.63;;;4.15;;
17985;SDS011;9118;48.122;11.546;2022-07-15T03:55:17;4.53;;;3.72;;
17985;SDS011;9118;48.122;11.546;2022-07-15T03:57:45;6.50;;;5.22;;
17985;SDS011;9118;48.122;11.546;2022-07-15T04:00:13;5.68;;;4.20;;
17985;SDS011;9118;48.122;11.546;2022-07-15T04:02:40;9.00;;;4.38;;
17985;SDS011;9118;48.122;11.546;2022-07-15T04:05:08;6.37;;;4.17;;
17985;SDS011;9118;48.122;11.546;2022-07-15T04:07:35;7.20;;;4.03;;
17985;SDS011;9118;48.122;11.546;2022-07-15T04:10:02;6.15;;;4.35;;
17985;SDS011;9118;48.122;11.546;2022-07-15T04:12:30;5.30;;;4.28;;
17985;SDS011;9118;48.122;11.546;2022-07-15T04:14:58;4.82;;;4.40;;
17985;SDS011;9118;48.122;11.546;2022-07-15T04:17:25;4.50;;;4.10;;
17985;SDS011;9118;48.122;11.546;2022-07-15T04:19:52;8.73;;;4.20;;
17985;SDS011;9118;48.122;11.546;2022-07-15T04:22:19;7.10;;;4.30;;
17985;SDS011;9118;48.122;11.546;2022-07-15T04:24:46;10.93;;;4.43;;
17985;SDS011;9118;48.122;11.546;2022-07-15T04:27:13;5.40;;;4.50;;
17985;SDS011;9118;48.122;11.546;2022-07-15T04:29:40;5.70;;;4.40;;
17985;SDS011;9118;48.122;11.546;2022-07-15T04:32:08;9.38;;;4.82;;
17985;SDS011;9118;48.122;11.546;2022-07-15T04:34:35;5.05;;;4.40;;
17985;SDS011;9118;48.122;11.546;2022-07-15T04:37:02;6.60;;;3.90;;
17985;SDS011;9118;48.122;11.546;2022-07-15T04:39:29;5.10;;;4.05;;
17985;SDS011;9118;48.122;11.546;2022-07-15T04:41:56;5.95;;;3.92;;
17985;SDS011;9118;48.122;11.546;2022-07-15T04:44:23;6.03;;;4.22;;
17985;SDS011;9118;48.122;11.546;2022-07-15T04:46:50;8.82;;;4.40;;
17985;SDS011;9118;48.122;11.546;2022-07-15T04:49:18;5.03;;;4.18;;
17985;SDS011;9118;48.122;11.546;2022-07-15T04:52:02;10.77;;;4.25;;
17985;SDS011;9118;48.122;11.546;2022-07-15T04:54:30;6.33;;;4.00;;
17985;SDS011;9118;48.122;11.546;2022-07-15T04:56:57;5.93;;;4.30;;
17985;SDS011;9118;48.122;11.546;2022-07-15T04:59:23;6.40;;;4.10;;
17985;SDS011;9118;48.122;11.546;2022-07-15T05:01:51;9.02;;;4.68;;
17985;SDS011;9118;48.122;11.546;2022-07-15T05:04:20;7.50;;;4.50;;
17985;SDS011;9118;48.122;11.546;2022-07-15T05:06:47;6.32;;;4.72;;
17985;SDS011;9118;48.122;11.546;2022-07-15T05:09:14;9.52;;;4.18;;
17985;SDS011;9118;48.122;11.546;2022-07-15T05:11:41;4.65;;;4.00;;
17985;SDS011;9118;48.122;11.546;2022-07-15T05:14:08;6.20;;;4.20;;
17985;SDS011;9118;48.122;11.546;2022-07-15T05:16:35;6.65;;;4.03;;
17985;SDS011;9118;48.122;11.546;2022-07-15T05:19:04;5.10;;;4.00;;
17985;SDS011;9118;48.122;11.546;2022-07-15T05:21:33;5.95;;;4.00;;
17985;SDS011;9118;48.122;11.546;2022-07-15T05:24:00;7.18;;;4.53;;
17985;SDS011;9118;48.122;11.546;2022-07-15T05:26:27;9.02;;;4.47;;
17985;SDS011;9118;48.122;11.546;2022-07-15T05:28:54;8.45;;;4.63;;
17985;SDS011;9118;48.122;11.546;2022-07-15T05:31:21;6.82;;;4.50;;
17985;SDS011;9118;48.122;11.546;2022-07-15T05:33:48;9.02;;;4.38;;
17985;SDS011;9118;48.122;11.546;2022-07-15T05:36:17;6.47;;;4.43;;
17985;SDS011;9118;48.122;11.546;2022-07-15T05:38:46;8.65;;;4.47;;
17985;SDS011;9118;48.122;11.546;2022-07-15T05:41:12;4.85;;;4.40;;
17985;SDS011;9118;48.122;11.546;2022-07-15T05:43:40;22.17;;;13.23;;
17985;SDS011;9118;48.122;11.546;2022-07-15T05:46:07;11.97;;;9.17;;
17985;SDS011;9118;48.122;11.546;2022-07-15T05:48:35;9.02;;;4.90;;
17985;SDS011;9118;48.122;11.546;2022-07-15T05:51:02;7.60;;;4.22;;
17985;SDS011;9118;48.122;11.546;2022-07-15T05:53:30;5.13;;;4.30;;
17985;SDS011;9118;48.122;11.546;2022-07-15T05:55:58;7.00;;;4.45;;
17985;SDS011;9118;48.122;11.546;2022-07-15T05:58:25;8.17;;;4.57;;
17985;SDS011;9118;48.122;11.546;2022-07-15T06:00:52;8.98;;;4.75;;
17985;SDS011;9118;48.122;11.546;2022-07-15T06:03:20;6.15;;;4.30;;
17985;SDS011;9118;48.122;11.546;2022-07-15T06:05:47;6.28;;;4.00;;
17985;SDS011;9118;48.122;11.546;2022-07-15T06:08:14;5.72;;;4.70;;
17985;SDS011;9118;48.122;11.546;2022-07-15T06:10:41;6.97;;;4.07;;
17985;SDS011;9118;48.122;11.546;2022-07-15T06:13:10;5.30;;;4.30;;
17985;SDS011;9118;48.122;11.546;2022-07-15T06:15:37;7.13;;;4.20;;
17985;SDS011;9118;48.122;11.546;2022-07-15T06:18:04;6.43;;;4.18;;
17985;SDS011;9118;48.122;11.546;2022-07-15T06:20:31;9.48;;;4.50;;
17985;SDS011;9118;48.122;11.546;2022-07-15T06:22:59;6.05;;;4.18;;
17985;SDS011;9118;48.122;11.546;2022-07-15T06:25:26;5.75;;;3.80;;
17985;SDS011;9118;48.122;11.546;2022-07-15T06:27:53;5.95;;;3.85;;
17985;SDS011;9118;48.122;11.546;2022-07-15T06:30:21;5.95;;;3.75;;
17985;SDS011;9118;48.122;11.546;2022-07-15T06:32:48;6.07;;;4.10;;
17985;SDS011;9118;48.122;11.546;2022-07-15T06:35:15;6.88;;;4.00;;
17985;SDS011;9118;48.122;11.546;2022-07-15T06:37:42;8.90;;;5.95;;
17985;SDS011;9118;48.122;11.546;2022-07-15T06:40:09;5.60;;;4.20;;
17985;SDS011;9118;48.122;11.546;2022-07-15T06:42:37;8.17;;;4.13;;
17985;SDS011;9118;48.122;11.546;2022-07-15T06:45:04;6.80;;;4.20;;
17985;SDS011;9118;48.122;11.546;2022-07-15T06:47:33;5.15;;;3.95;;
17985;SDS011;9118;48.122;11.546;2022-07-15T06:50:00;6.13;;;3.60;;
17985;SDS011;9118;48.122;11.546;2022-07-15T06:52:27;9.07;;;4.20;;
17985;SDS011;9118;48.122;11.546;2022-07-15T06:54:54;6.75;;;3.55;;
17985;SDS011;9118;48.122;11.546;2022-07-15T06:57:21;6.87;;;5.40;;
17985;SDS011;9118;48.122;11.546;2022-07-15T06:59:48;10.48;;;3.85;;
17985;SDS011;9118;48.122;11.546;2022-07-15T07:02:15;5.53;;;3.30;;
17985;SDS011;9118;48.122;11.546;2022-07-15T07:04:43;12.63;;;3.90;;
17985;SDS011;9118;48.122;11.546;2022-07-15T07:07:11;11.60;;;7.55;;
17985;SDS011;9118;48.122;11.546;2022-07-15T07:09:38;5.87;;;4.00;;
17985;SDS011;9118;48.122;11.546;2022-07-15T07:12:05;9.85;;;4.25;;
17985;SDS011;9118;48.122;11.546;2022-07-15T07:14:33;6.55;;;3.70;;
17985;SDS011;9118;48.122;11.546;2022-07-15T07:16:59;7.75;;;4.00;;
17985;SDS011;9118;48.122;11.546;2022-07-15T07:19:26;6.32;;;3.63;;
17985;SDS011;9118;48.122;11.546;2022-07-15T07:21:55;7.40;;;4.32;;
17985;SDS011;9118;48.122;11.546;2022-07-15T07:24:22;5.03;;;3.10;;
17985;SDS011;9118;48.122;11.546;2022-07-15T07:26:49;7.18;;;3.65;;
17985;SDS011;9118;48.122;11.546;2022-07-15T07:29:16;4.85;;;3.67;;
17985;SDS011;9118;48.122;11.546;2022-07-15T07:31:47;5.43;;;3.08;;
17985;SDS011;9118;48.122;11.546;2022-07-15T07:34:14;6.53;;;3.10;;
17985;SDS011;9118;48.122;11.546;2022-07-15T07:36:42;4.93;;;3.47;;
17985;SDS011;9118;48.122;11.546;2022-07-15T07:39:11;8.75;;;3.60;;
17985;SDS011;9118;48.122;11.546;2022-07-15T07:41:38;6.65;;;3.20;;
17985;SDS011;9118;48.122;11.546;2022-07-15T07:44:05;7.07;;;3.03;;
17985;SDS011;9118;48.122;11.546;2022-07-15T07:46:32;6.80;;;3.80;;
17985;SDS011;9118;48.122;11.546;2022-07-15T07:49:00;6.78;;;3.20;;
17985;SDS011;9118;48.122;11.546;2022-07-15T07:51:27;3.33;;;2.90;;
17985;SDS011;9118;48.122;11.546;2022-07-15T07:53:53;9.07;;;4.40;;
17985;SDS011;9118;48.122;11.546;2022-07-15T07:56:22;7.70;;;3.60;;
17985;SDS011;9118;48.122;11.546;2022-07-15T07:58:49;5.05;;;3.05;;
17985;SDS011;9118;48.122;11.546;2022-07-15T08:01:17;7.38;;;3.20;;
17985;SDS011;9118;48.122;11.546;2022-07-15T08:03:44;4.78;;;4.18;;
17985;SDS011;9118;48.122;11.546;2022-07-15T08:06:11;8.27;;;4.00;;
17985;SDS011;9118;48.122;11.546;2022-07-15T08:08:37;4.72;;;3.47;;
17985;SDS011;9118;48.122;11.546;2022-07-15T08:11:05;3.75;;;3.13;;
17985;SDS011;9118;48.122;11.546;2022-07-15T08:13:33;25.57;;;17.03;;
17985;SDS011;9118;48.122;11.546;2022-07-15T08:16:00;9.55;;;5.45;;
17985;SDS011;9118;48.122;11.546;2022-07-15T08:18:27;11.57;;;5.00;;
17985;SDS011;9118;48.122;11.546;2022-07-15T08:20:54;4.93;;;3.47;;
17985;SDS011;9118;48.122;11.546;2022-07-15T08:23:21;10.02;;;4.82;;
17985;SDS011;9118;48.122;11.546;2022-07-15T08:25:49;8.30;;;3.10;;
17985;SDS011;9118;48.122;11.546;2022-07-15T08:28:17;11.50;;;4.00;;
17985;SDS011;9118;48.122;11.546;2022-07-15T08:30:45;6.50;;;3.53;;
17985;SDS011;9118;48.122;11.546;2022-07-15T08:33:13;11.43;;;4.75;;
17985;SDS011;9118;48.122;11.546;2022-07-15T08:35:40;7.03;;;4.18;;
17985;SDS011;9118;48.122;11.546;2022-07-15T08:38:08;5.82;;;3.63;;
17985;SDS011;9118;48.122;11.546;2022-07-15T08:40:37;8.63;;;5.70;;
17985;SDS011;9118;48.122;11.546;2022-07-15T08:43:05;6.03;;;4.80;;
17985;SDS011;9118;48.122;11.546;2022-07-15T08:45:34;8.07;;;4.10;;
17985;SDS011;9118;48.122;11.546;2022-07-15T08:48:03;11.60;;;5.35;;
17985;SDS011;9118;48.122;11.546;2022-07-15T08:50:31;5.13;;;4.15;;
17985;SDS011;9118;48.122;11.546;2022-07-15T08:52:59;7.25;;;4.13;;
17985;SDS011;9118;48.122;11.546;2022-07-15T08:55:27;4.68;;;4.25;;
17985;SDS011;9118;48.122;11.546;2022-07-15T08:57:55;8.10;;;4.10;;
17985;SDS011;9118;48.122;11.546;2022-07-15T09:00:22;4.95;;;3.92;;
17985;SDS011;9118;48.122;11.546;2022-07-15T09:02:54;5.82;;;4.05;;
17985;SDS011;9118;48.122;11.546;2022-07-15T09:05:24;7.70;;;3.92;;
17985;SDS011;9118;48.122;11.546;2022-07-15T09:07:54;6.82;;;3.85;;
17985;SDS011;9118;48.122;11.546;2022-07-15T09:10:23;8.80;;;4.50;;
17985;SDS011;9118;48.122;11.546;2022-07-15T09:12:52;7.78;;;4.10;;
17985;SDS011;9118;48.122;11.546;2022-07-15T09:15:30;11.13;;;4.45;;
17985;SDS011;9118;48.122;11.546;2022-07-15T09:18:05;5.70;;;3.83;;
17985;SDS011;9118;48.122;11.546;2022-07-15T09:20:35;5.50;;;4.55;;
17985;SDS011;9118;48.122;11.546;2022-07-15T09:23:02;5.93;;;4.00;;
17985;SDS011;9118;48.122;11.546;2022-07-15T09:25:33;6.18;;;4.43;;
17985;SDS011;9118;48.122;11.546;2022-07-15T09:28:01;8.35;;;4.55;;
17985;SDS011;9118;48.122;11.546;2022-07-15T09:30:31;6.03;;;4.70;;
17985;SDS011;9118;48.122;11.546;2022-07-15T09:33:17;7.60;;;4.03;;
17985;SDS011;9118;48.122;11.546;2022-07-15T09:36:06;9.65;;;4.90;;
17985;SDS011;9118;48.122;11.546;2022-07-15T09:38:38;6.43;;;4.28;;
17985;SDS011;9118;48.122;11.546;2022-07-15T09:41:11;11.80;;;4.50;;
17985;SDS011;9118;48.122;11.546;2022-07-15T09:46:27;7.38;;;4.57;;
17985;SDS011;9118;48.122;11.546;2022-07-15T09:48:56;7.43;;;4.40;;
17985;SDS011;9118;48.122;11.546;2022-07-15T09:51:24;6.75;;;4.47;;
17985;SDS011;9118;48.122;11.546;2022-07-15T09:53:51;8.13;;;4.63;;
17985;SDS011;9118;48.122;11.546;2022-07-15T09:56:19;10.80;;;5.10;;
17985;SDS011;9118;48.122;11.546;2022-07-15T09:58:48;5.82;;;4.35;;
17985;SDS011;9118;48.122;11.546;2022-07-15T10:01:16;9.95;;;5.60;;
17985;SDS011;9118;48.122;11.546;2022-07-15T10:03:43;6.95;;;4.85;;
17985;SDS011;9118;48.122;11.546;2022-07-15T10:06:12;9.70;;;5.13;;
17985;SDS011;9118;48.122;11.546;2022-07-15T10:08:43;5.18;;;4.35;;
17985;SDS011;9118;48.122;11.546;2022-07-15T10:11:13;7.13;;;4.47;;
17985;SDS011;9118;48.122;11.546;2022-07-15T10:20:00;6.18;;;4.57;;
17985;SDS011;9118;48.122;11.546;2022-07-15T10:22:41;8.00;;;4.80;;
17985;SDS011;9118;48.122;11.546;2022-07-15T10:25:20;8.27;;;4.38;;
17985;SDS011;9118;48.122;11.546;2022-07-15T10:28:00;12.02;;;7.25;;
17985;SDS011;9118;48.122;11.546;2022-07-15T10:30:31;18.30;;;12.57;;
17985;SDS011;9118;48.122;11.546;2022-07-15T10:33:05;8.13;;;4.53;;
17985;SDS011;9118;48.122;11.546;2022-07-15T10:35:36;6.82;;;4.93;;
17985;SDS011;9118;48.122;11.546;2022-07-15T10:40:59;5.25;;;4.10;;
17985;SDS011;9118;48.122;11.546;2022-07-15T10:43:43;8.45;;;6.20;;
17985;SDS011;9118;48.122;11.546;2022-07-15T10:46:23;4.90;;;4.47;;
17985;SDS011;9118;48.122;11.546;2022-07-15T10:48:53;8.40;;;6.85;;
17985;SDS011;9118;48.122;11.546;2022-07-15T10:52:08;5.30;;;4.07;;
17985;SDS011;9118;48.122;11.546;2022-07-15T10:54:41;6.28;;;4.10;;
17985;SDS011;9118;48.122;11.546;2022-07-15T10:57:11;5.63;;;4.45;;
17985;SDS011;9118;48.122;11.546;2022-07-15T10:59:50;7.80;;;3.95;;
17985;SDS011;9118;48.122;11.546;2022-07-15T11:02:22;7.47;;;5.95;;
17985;SDS011;9118;48.122;11.546;2022-07-15T11:04:51;6.07;;;4.70;;
17985;SDS011;9118;48.122;11.546;2022-07-15T11:07:39;6.82;;;4.45;;
17985;SDS011;9118;48.122;11.546;2022-07-15T11:10:16;4.47;;;3.92;;
17985;SDS011;9118;48.122;11.546;2022-07-15T11:12:55;7.45;;;4.15;;
17985;SDS011;9118;48.122;11.546;2022-07-15T11:15:25;5.40;;;4.20;;
17985;SDS011;9118;48.122;11.546;2022-07-15T11:17:52;4.50;;;4.10;;
17985;SDS011;9118;48.122;11.546;2022-07-15T11:20:22;6.82;;;4.53;;
17985;SDS011;9118;48.122;11.546;2022-07-15T11:22:53;5.00;;;3.80;;
17985;SDS011;9118;48.122;11.546;2022-07-15T11:25:24;5.22;;;4.75;;
17985;SDS011;9118;48.122;11.546;2022-07-15T11:28:01;6.38;;;4.30;;
17985;SDS011;9118;48.122;11.546;2022-07-15T11:30:31;6.28;;;4.55;;
17985;SDS011;9118;48.122;11.546;2022-07-15T11:33:01;6.68;;;4.43;;
17985;SDS011;9118;48.122;11.546;2022-07-15T11:35:29;7.10;;;4.30;;
17985;SDS011;9118;48.122;11.546;2022-07-15T11:38:08;4.35;;;3.95;;
17985;SDS011;9118;48.122;11.546;2022-07-15T11:40:35;6.63;;;3.63;;
17985;SDS011;9118;48.122;11.546;2022-07-15T11:43:25;5.43;;;4.18;;
17985;SDS011;9118;48.122;11.546;2022-07-15T11:46:09;13.63;;;6.47;;
17985;SDS011;9118;48.122;11.546;2022-07-15T11:48:37;5.03;;;4.30;;
17985;SDS011;9118;48.122;11.546;2022-07-15T11:51:06;6.07;;;3.90;;
17985;SDS011;9118;48.122;11.546;2022-07-15T11:53:35;5.43;;;3.80;;
17985;SDS011;9118;48.122;11.546;2022-07-15T11:56:04;5.20;;;4.10;;
17985;SDS011;9118;48.122;11.546;2022-07-15T11:58:34;5.93;;;4.07;;
17985;SDS011;9118;48.122;11.546;2022-07-15T12:01:03;4.50;;;3.92;;
17985;SDS011;9118;48.122;11.546;2022-07-15T12:03:32;5.75;;;3.88;;
17985;SDS011;9118;48.122;11.546;2022-07-15T12:06:03;6.20;;;3.92;;
17985;SDS011;9118;48.122;11.546;2022-07-15T12:08:35;6.85;;;3.83;;
17985;SDS011;9118;48.122;11.546;2022-07-15T12:11:15;6.70;;;3.80;;
17985;SDS011;9118;48.122;11.546;2022-07-15T12:13:45;4.18;;;3.88;;
17985;SDS011;9118;48.122;11.546;2022-07-15T12:16:14;4.85;;;3.88;;
17985;SDS011;9118;48.122;11.546;2022-07-15T12:18:45;4.75;;;4.03;;
17985;SDS011;9118;48.122;11.546;2022-07-15T12:21:14;6.50;;;4.05;;
17985;SDS011;9118;48.122;11.546;2022-07-15T12:23:41;4.10;;;3.75;;
17985;SDS011;9118;48.122;11.546;2022-07-15T12:26:28;5.38;;;3.58;;
17985;SDS011;9118;48.122;11.546;2022-07-15T12:28:59;5.50;;;3.90;;
17985;SDS011;9118;48.122;11.546;2022-07-15T12:31:28;5.50;;;3.72;;
17985;SDS011;9118;48.122;11.546;2022-07-15T12:33:57;6.10;;;4.20;;
17985;SDS011;9118;48.122;11.546;2022-07-15T12:36:25;4.18;;;3.80;;
17985;SDS011;9118;48.122;11.546;2022-07-15T12:39:07;14.18;;;4.57;;
17985;SDS011;9118;48.122;11.546;2022-07-15T12:41:37;7.43;;;4.10;;
17985;SDS011;9118;48.122;11.546;2022-07-15T12:44:07;4.80;;;3.63;;
17985;SDS011;9118;48.122;11.546;2022-07-15T12:46:54;5.95;;;4.07;;
17985;SDS011;9118;48.122;11.546;2022-07-15T12:52:17;4.25;;;3.78;;
17985;SDS011;9118;48.122;11.546;2022-07-15T12:54:46;4.97;;;3.55;;
17985;SDS011;9118;48.122;11.546;2022-07-15T12:57:21;3.95;;;3.55;;
17985;SDS011;9118;48.122;11.546;2022-07-15T12:59:55;4.35;;;3.78;;
17985;SDS011;9118;48.122;11.546;2022-07-15T13:02:23;6.32;;;4.13;;
17985;SDS011;9118;48.122;11.546;2022-07-15T13:04:51;3.95;;;3.60;;
17985;SDS011;9118;48.122;11.546;2022-07-15T13:07:18;4.00;;;3.60;;
17985;SDS011;9118;48.122;11.546;2022-07-15T13:09:45;4.03;;;3.63;;
17985;SDS011;9118;48.122;11.546;2022-07-15T13:12:12;5.38;;;3.58;;
17985;SDS011;9118;48.122;11.546;2022-07-15T13:14:40;6.20;;;3.70;;
17985;SDS011;9118;48.122;11.546;2022-07-15T13:17:09;7.65;;;4.47;;
17985;SDS011;9118;48.122;11.546;2022-07-15T13:19:36;7.70;;;6.72;;
17985;SDS011;9118;48.122;11.546;2022-07-15T13:22:03;5.88;;;4.22;;
17985;SDS011;9118;48.122;11.546;2022-07-15T13:24:30;5.20;;;3.70;;
17985;SDS011;9118;48.122;11.546;2022-07-15T13:26:57;5.35;;;3.80;;
17985;SDS011;9118;48.122;11.546;2022-07-15T13:29:24;9.20;;;3.78;;
17985;SDS011;9118;48.122;11.546;2022-07-15T13:31:52;3.95;;;3.55;;
17985;SDS011;9118;48.122;11.546;2022-07-15T13:34:22;6.05;;;3.60;;
17985;SDS011;9118;48.122;11.546;2022-07-15T13:36:49;4.35;;;3.70;;
17985;SDS011;9118;48.122;11.546;2022-07-15T13:39:16;5.82;;;3.75;;
17985;SDS011;9118;48.122;11.546;2022-07-15T13:41:43;6.32;;;3.25;;
17985;SDS011;9118;48.122;11.546;2022-07-15T13:44:10;5.70;;;3.63;;
17985;SDS011;9118;48.122;11.546;2022-07-15T13:46:37;6.35;;;3.72;;
17985;SDS011;9118;48.122;11.546;2022-07-15T13:49:04;4.25;;;3.83;;
17985;SDS011;9118;48.122;11.546;2022-07-15T13:51:32;4.82;;;3.60;;
17985;SDS011;9118;48.122;11.546;2022-07-15T13:53:58;5.38;;;3.70;;
17985;SDS011;9118;48.122;11.546;2022-07-15T13:56:26;4.22;;;3.60;;
17985;SDS011;9118;48.122;11.546;2022-07-15T13:58:53;5.80;;;3.70;;
17985;SDS011;9118;48.122;11.546;2022-07-15T14:01:24;3.60;;;3.30;;
17985;SDS011;9118;48.122;11.546;2022-07-15T14:03:56;4.97;;;3.58;;
17985;SDS011;9118;48.122;11.546;2022-07-15T14:06:23;5.45;;;3.30;;
17985;SDS011;9118;48.122;11.546;2022-07-15T14:08:52;5.80;;;3.55;;
17985;SDS011;9118;48.122;11.546;2022-07-15T14:11:19;5.43;;;3.20;;
17985;SDS011;9118;48.122;11.546;2022-07-15T14:13:46;4.30;;;3.17;;
17985;SDS011;9118;48.122;11.546;2022-07-15T14:16:13;5.18;;;3.60;;
17985;SDS011;9118;48.122;11.546;2022-07-15T14:18:40;3.58;;;3.13;;
17985;SDS011;9118;48.122;11.546;2022-07-15T14:21:11;4.63;;;4.15;;
17985;SDS011;9118;48.122;11.546;2022-07-15T14:23:38;3.25;;;2.95;;
17985;SDS011;9118;48.122;11.546;2022-07-15T14:26:06;5.88;;;3.75;;
17985;SDS011;9118;48.122;11.546;2022-07-15T14:28:33;4.43;;;3.88;;
17985;SDS011;9118;48.122;11.546;2022-07-15T14:31:00;4.85;;;3.40;;
17985;SDS011;9118;48.122;11.546;2022-07-15T14:33:28;4.50;;;3.40;;
17985;SDS011;9118;48.122;11.546;2022-07-15T14:35:55;7.63;;;3.67;;
17985;SDS011;9118;48.122;11.546;2022-07-15T14:38:22;5.60;;;3.53;;
17985;SDS011;9118;48.122;11.546;2022-07-15T14:40:49;5.03;;;3.20;;
17985;SDS011;9118;48.122;11.546;2022-07-15T14:43:17;5.22;;;3.30;;
17985;SDS011;9118;48.122;11.546;2022-07-15T14:45:44;9.23;;;4.15;;
17985;SDS011;9118;48.122;11.546;2022-07-15T14:48:11;5.05;;;4.38;;
17985;SDS011;9118;48.122;11.546;2022-07-15T14:50:38;5.20;;;3.15;;
17985;SDS011;9118;48.122;11.546;2022-07-15T14:53:05;4.68;;;3.35;;
17985;SDS011;9118;48.122;11.546;2022-07-15T14:55:32;3.50;;;3.20;;
17985;SDS011;9118;48.122;11.546;2022-07-15T14:57:59;5.10;;;2.97;;
17985;SDS011;9118;48.122;11.546;2022-07-15T15:00:28;4.32;;;3.30;;
17985;SDS011;9118;48.122;11.546;2022-07-15T15:02:55;3.83;;;3.13;;
17985;SDS011;9118;48.122;11.546;2022-07-15T15:05:22;5.72;;;3.60;;
17985;SDS011;9118;48.122;11.546;2022-07-15T15:07:49;4.10;;;3.03;;
17985;SDS011;9118;48.122;11.546;2022-07-15T15:10:16;3.92;;;3.13;;